Time;durP1;ratioP1;P1;durP2;ratioP2;P2;SDS_P1;SDS_P2;PMS_P1;PMS_P2;Temp;Humidity;BMP_temperature;BMP_pressure;BME280_temperature;BME280_humidity;BME280_pressure;Samples;Min_cycle;Max_cycle;Signal;HPM_P1;HPM_P2
2023/01/23 00:04:44;;;;;;;8.45;5.55;;;0.10;99.90;;;;;;5130843;27;20198;-95
2023/01/23 00:40:43;;;;;;;6.80;4.72;;;0.00;99.90;;;;;;5110521;27;20238;-94
2023/01/23 00:46:57;;;;;;;9.18;5.32;;;0.00;99.90;;;;;;5092686;28;20203;-93
2023/01/23 00:59:30;;;;;;;9.50;5.10;;;0.00;99.90;;;;;;5184066;22;20216;-95
2023/01/23 01:49:03;;;;;;;8.23;5.15;;;0.00;99.90;;;;;;5036503;28;20205;-95
2023/01/23 01:51:39;;;;;;;8.23;5.53;;;0.00;99.90;;;;;;5020099;28;20207;-94
2023/01/23 01:57:15;;;;;;;9.95;5.43;;;0.00;99.90;;;;;;4999957;28;20175;-92
2023/01/23 02:05:59;;;;;;;10.55;5.80;;;0.00;99.90;;;;;;4996336;28;20194;-93
2023/01/23 02:55:01;;;;;;;8.13;5.60;;;0.10;99.90;;;;;;5030671;28;20218;-94
2023/01/23 02:57:28;;;;;;;8.70;4.97;;;0.10;99.90;;;;;;5032101;28;20206;-93
2023/01/23 03:02:39;;;;;;;11.23;6.68;;;0.00;99.90;;;;;;5031782;28;20216;-94
2023/01/23 03:13:11;;;;;;;7.90;5.30;;;0.00;99.90;;;;;;5033111;28;20214;-93
2023/01/23 03:15:41;;;;;;;9.18;5.88;;;0.10;99.90;;;;;;5033372;28;20269;-94
2023/01/23 03:18:08;;;;;;;8.52;5.47;;;0.10;99.90;;;;;;5031324;28;20193;-95
2023/01/23 03:21:11;;;;;;;10.05;5.88;;;0.10;99.90;;;;;;5032446;28;20203;-92
2023/01/23 03:24:24;;;;;;;10.70;6.82;;;0.00;99.90;;;;;;5031639;28;20255;-94
2023/01/23 03:26:52;;;;;;;9.70;6.13;;;0.00;99.90;;;;;;5030023;28;20265;-93
2023/01/23 03:32:07;;;;;;;5.40;4.43;;;0.00;99.90;;;;;;5030743;28;20229;-93
2023/01/23 03:34:35;;;;;;;10.45;6.75;;;0.00;99.90;;;;;;5038308;28;20257;-94
2023/01/23 03:37:02;;;;;;;7.30;5.63;;;0.00;99.90;;;;;;5038310;28;20197;-93
2023/01/23 03:42:15;;;;;;;8.32;5.63;;;0.00;99.90;;;;;;5065144;22;20268;-94
2023/01/23 03:44:42;;;;;;;10.95;7.38;;;0.00;99.90;;;;;;5051896;28;20209;-93
2023/01/23 03:47:09;;;;;;;8.80;7.15;;;0.10;99.90;;;;;;5051667;28;20352;-94
2023/01/23 03:49:36;;;;;;;9.98;6.93;;;0.10;99.90;;;;;;5050396;28;20233;-93
2023/01/23 03:52:04;;;;;;;9.93;7.10;;;0.10;99.90;;;;;;5054931;28;20269;-93
2023/01/23 03:54:31;;;;;;;8.90;5.97;;;0.10;99.90;;;;;;5052549;28;20201;-94
2023/01/23 03:57:04;;;;;;;9.52;6.05;;;0.00;99.90;;;;;;5051355;28;20202;-94
2023/01/23 03:59:34;;;;;;;10.73;6.25;;;0.00;99.90;;;;;;5052908;28;20317;-94
2023/01/23 04:02:03;;;;;;;7.78;5.53;;;0.00;99.90;;;;;;5052989;28;20312;-93
2023/01/23 04:04:41;;;;;;;9.07;5.72;;;0.10;99.90;;;;;;5051017;28;20208;-93
2023/01/23 04:07:08;;;;;;;10.48;6.70;;;0.10;99.90;;;;;;5051222;28;20201;-93
2023/01/23 04:09:36;;;;;;;6.82;5.15;;;0.10;99.90;;;;;;5051063;28;20265;-93
2023/01/23 04:12:02;;;;;;;9.32;6.10;;;0.10;99.90;;;;;;5051397;28;20304;-93
2023/01/23 04:17:27;;;;;;;10.43;6.18;;;0.10;99.90;;;;;;5049284;28;20197;-94
2023/01/23 04:19:57;;;;;;;7.38;5.13;;;0.10;99.90;;;;;;5047568;28;20236;-94
2023/01/23 04:22:23;;;;;;;10.18;6.70;;;0.10;99.90;;;;;;5047565;28;20228;-93
2023/01/23 04:33:04;;;;;;;8.10;6.70;;;0.00;99.90;;;;;;5058012;28;20281;-94
2023/01/23 04:35:31;;;;;;;10.20;6.18;;;0.00;99.90;;;;;;5055519;28;20189;-94
2023/01/23 04:37:58;;;;;;;13.43;7.55;;;0.00;99.90;;;;;;5052452;28;20205;-93
2023/01/23 04:40:52;;;;;;;8.63;5.95;;;0.00;99.90;;;;;;5056671;28;20242;-93
2023/01/23 04:46:18;;;;;;;7.88;5.82;;;0.10;99.90;;;;;;4655515;27;15065914;-94
2023/01/23 04:48:46;;;;;;;11.57;6.70;;;0.10;99.90;;;;;;5174302;27;20170;-94
2023/01/23 04:51:25;;;;;;;11.02;6.70;;;0.00;99.90;;;;;;5173603;27;20178;-94
2023/01/23 04:53:51;;;;;;;12.20;6.72;;;0.00;99.90;;;;;;5154551;27;20201;-94
2023/01/23 04:56:19;;;;;;;10.43;6.35;;;0.00;99.90;;;;;;5155170;27;20182;-94
2023/01/23 04:58:48;;;;;;;10.35;7.20;;;0.00;99.90;;;;;;5154995;27;20212;-94
2023/01/23 05:01:39;;;;;;;7.30;5.53;;;0.00;99.90;;;;;;5143963;27;20238;-95
2023/01/23 05:04:07;;;;;;;9.13;5.97;;;0.00;99.90;;;;;;5156063;22;20224;-95
2023/01/23 05:06:37;;;;;;;11.88;6.60;;;0.00;99.90;;;;;;5185142;22;20223;-93
2023/01/23 05:09:10;;;;;;;10.43;6.78;;;0.00;99.90;;;;;;5143159;27;20187;-94
2023/01/23 05:11:37;;;;;;;9.90;6.72;;;0.00;99.90;;;;;;5139381;27;20183;-93
2023/01/23 05:14:04;;;;;;;11.65;7.05;;;0.00;99.90;;;;;;5122185;27;20282;-94
2023/01/23 05:16:32;;;;;;;10.80;5.45;;;0.00;99.90;;;;;;5123716;27;20771;-94
2023/01/23 05:19:00;;;;;;;9.07;6.00;;;0.00;99.90;;;;;;5110209;28;20204;-93
2023/01/23 05:21:27;;;;;;;8.98;5.97;;;0.00;99.90;;;;;;5112973;27;20208;-95
2023/01/23 05:23:56;;;;;;;10.15;6.00;;;0.00;99.90;;;;;;5114012;27;20247;-96
2023/01/23 09:01:16;;;;;;;11.63;6.20;;;0.70;99.90;;;;;;5073917;28;20215;-94
2023/01/23 09:03:43;;;;;;;8.27;6.10;;;0.80;99.90;;;;;;5076198;28;20233;-94
2023/01/23 09:06:17;;;;;;;8.68;6.30;;;0.80;99.90;;;;;;5076177;28;20343;-93
2023/01/23 09:08:44;;;;;;;10.10;6.22;;;0.80;99.90;;;;;;5075556;28;20207;-94
2023/01/23 09:11:13;;;;;;;11.85;6.95;;;0.80;99.90;;;;;;5076585;28;20185;-93
2023/01/23 09:13:40;;;;;;;7.28;5.30;;;0.80;99.90;;;;;;5075414;28;20263;-94
2023/01/23 09:16:09;;;;;;;7.70;6.10;;;0.90;99.90;;;;;;5076362;28;20197;-94
2023/01/23 09:57:54;;;;;;;5.07;4.57;;;0.70;99.90;;;;;;764441;22;20498;-93
2023/01/23 10:03:14;;;;;;;7.20;4.47;;;0.60;99.90;;;;;;5058478;28;20209;-94
2023/01/23 10:05:47;;;;;;;8.18;4.70;;;0.60;99.90;;;;;;5059888;28;20201;-95
2023/01/23 10:08:22;;;;;;;7.68;4.50;;;0.60;99.90;;;;;;5058867;28;20208;-93
2023/01/23 10:11:00;;;;;;;7.53;4.47;;;0.60;99.90;;;;;;5059004;28;20170;-95
2023/01/23 10:14:07;;;;;;;6.63;4.80;;;0.70;99.90;;;;;;5058915;28;20289;-96
2023/01/23 10:16:52;;;;;;;6.95;4.95;;;0.80;99.90;;;;;;5058273;28;20220;-94
2023/01/23 10:19:41;;;;;;;8.57;5.70;;;0.90;99.90;;;;;;5058323;28;20245;-94
2023/01/23 15:58:29;;;;;;;11.23;6.25;;;1.60;99.90;;;;;;5074315;28;20218;-91
2023/01/23 16:00:56;;;;;;;11.45;6.65;;;1.60;99.90;;;;;;5077120;28;20177;-92
2023/01/23 16:03:25;;;;;;;8.63;5.95;;;1.60;99.90;;;;;;5077292;28;20239;-93
2023/01/23 16:06:01;;;;;;;9.73;5.55;;;1.60;99.90;;;;;;5076112;22;20234;-93
2023/01/23 20:19:26;;;;;;;12.40;7.20;;;1.50;99.90;;;;;;5380180;23;20224;-93
2023/01/23 21:16:30;;;;;;;13.48;7.00;;;1.60;99.90;;;;;;4937990;29;20168;-94
2023/01/23 21:19:02;;;;;;;10.90;6.30;;;1.60;99.90;;;;;;4993273;28;20186;-93
2023/01/23 21:21:30;;;;;;;10.10;7.13;;;1.60;99.90;;;;;;4997828;28;20183;-94
2023/01/23 21:24:05;;;;;;;10.18;6.60;;;1.60;99.90;;;;;;4997439;28;20182;-93
2023/01/23 21:26:37;;;;;;;11.55;7.90;;;1.50;99.90;;;;;;4995129;28;20206;-94
2023/01/23 21:29:06;;;;;;;11.82;6.80;;;1.50;99.90;;;;;;5078532;23;20294;-93
2023/01/23 21:34:16;;;;;;;11.85;6.75;;;1.50;99.90;;;;;;4980405;28;20200;-94
2023/01/23 21:36:46;;;;;;;9.68;6.78;;;1.60;99.90;;;;;;4982180;29;20179;-93
2023/01/23 21:39:17;;;;;;;8.75;6.30;;;1.60;99.90;;;;;;4980937;28;20197;-92
2023/01/23 21:41:46;;;;;;;12.63;8.27;;;1.50;99.90;;;;;;5156698;23;20303;-92
2023/01/23 21:44:16;;;;;;;11.23;7.57;;;1.50;99.90;;;;;;4980646;28;20184;-93
2023/01/23 21:46:45;;;;;;;9.25;7.13;;;1.60;99.90;;;;;;4979702;28;20247;-91
2023/01/23 21:49:13;;;;;;;9.40;6.88;;;1.60;99.90;;;;;;4979572;28;20229;-94
2023/01/23 21:51:40;;;;;;;14.15;6.85;;;1.60;99.90;;;;;;4979593;28;20185;-93
2023/01/23 21:54:07;;;;;;;10.55;8.05;;;1.60;99.90;;;;;;5030726;23;21092;-91
2023/01/23 21:56:46;;;;;;;13.50;7.47;;;1.60;99.90;;;;;;5034154;23;20220;-91
